sensor_id;sensor_type;location;lat;lon;timestamp;temperature;humidity
73955;DHT22;62306;52.516;13.290;2024-02-28T00:01:48;5.30;99.90
73955;DHT22;62306;52.516;13.290;2024-02-28T00:04:15;5.30;99.90
73955;DHT22;62306;52.516;13.290;2024-02-28T03:31:16;4.90;99.90
73955;DHT22;62306;52.516;13.290;2024-02-28T03:33:43;4.90;99.90
73955;DHT22;62306;52.516;13.290;2024-02-28T03:36:12;4.90;99.90
73955;DHT22;62306;52.516;13.290;2024-02-28T03:38:39;4.90;99.90
73955;DHT22;62306;52.516;13.290;2024-02-28T03:41:06;5.00;99.90
73955;DHT22;62306;52.516;13.290;2024-02-28T03:43:33;5.00;99.90
73955;DHT22;62306;52.516;13.290;2024-02-28T03:46:00;5.00;99.90
73955;DHT22;62306;52.516;13.290;2024-02-28T03:48:28;4.90;99.90
73955;DHT22;62306;52.516;13.290;2024-02-28T03:50:55;5.00;99.90
73955;DHT22;62306;52.516;13.290;2024-02-28T03:53:22;4.90;99.90
73955;DHT22;62306;52.516;13.290;2024-02-28T03:55:48;4.90;99.90
73955;DHT22;62306;52.516;13.290;2024-02-28T03:58:16;4.80;99.90
73955;DHT22;62306;52.516;13.290;2024-02-28T04:00:43;4.80;99.90
73955;DHT22;62306;52.516;13.290;2024-02-28T04:03:11;4.80;99.90
73955;DHT22;62306;52.516;13.290;2024-02-28T04:05:41;4.80;99.90
73955;DHT22;62306;52.516;13.290;2024-02-28T04:08:08;4.90;99.90
73955;DHT22;62306;52.516;13.290;2024-02-28T04:10:34;4.90;99.90
73955;DHT22;62306;52.516;13.290;2024-02-28T04:13:01;4.90;99.90
73955;DHT22;62306;52.516;13.290;2024-02-28T04:15:29;4.80;99.90
73955;DHT22;62306;52.516;13.290;2024-02-28T04:17:56;4.90;99.90
73955;DHT22;62306;52.516;13.290;2024-02-28T04:20:23;4.90;99.90
73955;DHT22;62306;52.516;13.290;2024-02-28T04:22:51;5.00;99.90
73955;DHT22;62306;52.516;13.290;2024-02-28T04:25:18;5.00;99.90
73955;DHT22;62306;52.516;13.290;2024-02-28T04:27:45;4.90;99.90
73955;DHT22;62306;52.516;13.290;2024-02-28T04:30:13;4.90;99.90
73955;DHT22;62306;52.516;13.290;2024-02-28T04:32:39;4.80;99.90
73955;DHT22;62306;52.516;13.290;2024-02-28T04:35:07;4.80;99.90
73955;DHT22;62306;52.516;13.290;2024-02-28T04:37:34;4.80;99.90
73955;DHT22;62306;52.516;13.290;2024-02-28T04:40:03;4.80;99.90
73955;DHT22;62306;52.516;13.290;2024-02-28T04:42:32;4.80;99.90
73955;DHT22;62306;52.516;13.290;2024-02-28T04:44:59;4.80;99.90
73955;DHT22;62306;52.516;13.290;2024-02-28T04:47:25;4.80;99.90
73955;DHT22;62306;52.516;13.290;2024-02-28T04:49:52;4.80;99.90
73955;DHT22;62306;52.516;13.290;2024-02-28T04:52:19;4.90;99.90
73955;DHT22;62306;52.516;13.290;2024-02-28T04:54:46;4.80;99.90
73955;DHT22;62306;52.516;13.290;2024-02-28T04:57:14;4.80;99.90
73955;DHT22;62306;52.516;13.290;2024-02-28T04:59:42;4.90;99.90
73955;DHT22;62306;52.516;13.290;2024-02-28T05:02:09;4.90;99.90
73955;DHT22;62306;52.516;13.290;2024-02-28T05:04:36;4.90;99.90
73955;DHT22;62306;52.516;13.290;2024-02-28T05:07:03;5.00;99.90
73955;DHT22;62306;52.516;13.290;2024-02-28T05:09:32;5.00;99.90
73955;DHT22;62306;52.516;13.290;2024-02-28T05:11:59;4.90;99.90
73955;DHT22;62306;52.516;13.290;2024-02-28T05:14:27;4.90;99.90
73955;DHT22;62306;52.516;13.290;2024-02-28T05:16:54;4.90;99.90
73955;DHT22;62306;52.516;13.290;2024-02-28T05:19:21;4.90;99.90
73955;DHT22;62306;52.516;13.290;2024-02-28T05:21:48;4.90;99.90
73955;DHT22;62306;52.516;13.290;2024-02-28T05:24:15;4.80;99.90
73955;DHT22;62306;52.516;13.290;2024-02-28T05:26:42;4.80;99.90
73955;DHT22;62306;52.516;13.290;2024-02-28T05:29:08;4.80;99.90
73955;DHT22;62306;52.516;13.290;2024-02-28T05:31:37;4.90;99.90
73955;DHT22;62306;52.516;13.290;2024-02-28T05:34:04;4.90;99.90
73955;DHT22;62306;52.516;13.290;2024-02-28T05:36:31;4.90;99.90
73955;DHT22;62306;52.516;13.290;2024-02-28T05:39:00;4.90;99.90
73955;DHT22;62306;52.516;13.290;2024-02-28T05:41:27;4.90;99.90
73955;DHT22;62306;52.516;13.290;2024-02-28T05:43:54;4.80;99.90
73955;DHT22;62306;52.516;13.290;2024-02-28T05:46:21;4.80;99.90
73955;DHT22;62306;52.516;13.290;2024-02-28T05:48:50;4.80;99.90
73955;DHT22;62306;52.516;13.290;2024-02-28T05:51:17;4.80;99.90
73955;DHT22;62306;52.516;13.290;2024-02-28T05:53:44;4.80;99.90
73955;DHT22;62306;52.516;13.290;2024-02-28T05:56:11;4.80;99.90
73955;DHT22;62306;52.516;13.290;2024-02-28T05:58:40;4.80;99.90
73955;DHT22;62306;52.516;13.290;2024-02-28T06:01:08;4.80;99.90
73955;DHT22;62306;52.516;13.290;2024-02-28T06:03:34;4.80;99.90
73955;DHT22;62306;52.516;13.290;2024-02-28T06:06:03;4.80;99.90
73955;DHT22;62306;52.516;13.290;2024-02-28T06:08:32;4.80;99.90
73955;DHT22;62306;52.516;13.290;2024-02-28T06:10:59;4.80;99.90
73955;DHT22;62306;52.516;13.290;2024-02-28T06:13:27;4.80;99.90
73955;DHT22;62306;52.516;13.290;2024-02-28T06:15:53;4.90;99.90
73955;DHT22;62306;52.516;13.290;2024-02-28T06:18:20;4.90;99.90
73955;DHT22;62306;52.516;13.290;2024-02-28T06:20:48;4.90;99.90
73955;DHT22;62306;52.516;13.290;2024-02-28T06:23:16;4.90;99.90
73955;DHT22;62306;52.516;13.290;2024-02-28T06:25:43;4.90;99.90
73955;DHT22;62306;52.516;13.290;2024-02-28T06:28:10;4.90;99.90
73955;DHT22;62306;52.516;13.290;2024-02-28T06:30:37;4.90;99.90
73955;DHT22;62306;52.516;13.290;2024-02-28T06:33:04;4.90;99.90
73955;DHT22;62306;52.516;13.290;2024-02-28T06:35:31;5.00;99.90
73955;DHT22;62306;52.516;13.290;2024-02-28T06:37:58;5.00;99.90
73955;DHT22;62306;52.516;13.290;2024-02-28T06:40:26;5.00;99.90
73955;DHT22;62306;52.516;13.290;2024-02-28T06:42:54;4.90;99.90
73955;DHT22;62306;52.516;13.290;2024-02-28T06:45:21;4.90;99.90
73955;DHT22;62306;52.516;13.290;2024-02-28T06:47:48;5.00;99.90
73955;DHT22;62306;52.516;13.290;2024-02-28T06:50:15;5.00;99.90
73955;DHT22;62306;52.516;13.290;2024-02-28T06:52:41;5.00;99.90
73955;DHT22;62306;52.516;13.290;2024-02-28T06:55:08;5.00;99.90
73955;DHT22;62306;52.516;13.290;2024-02-28T06:57:38;5.00;99.90
73955;DHT22;62306;52.516;13.290;2024-02-28T07:00:07;5.00;99.90
73955;DHT22;62306;52.516;13.290;2024-02-28T07:02:34;5.00;99.90
73955;DHT22;62306;52.516;13.290;2024-02-28T07:05:01;5.00;99.90
73955;DHT22;62306;52.516;13.290;2024-02-28T07:07:29;5.00;99.90
73955;DHT22;62306;52.516;13.290;2024-02-28T07:09:57;5.00;99.90
73955;DHT22;62306;52.516;13.290;2024-02-28T07:12:24;5.00;99.90
73955;DHT22;62306;52.516;13.290;2024-02-28T07:14:52;5.00;99.90
73955;DHT22;62306;52.516;13.290;2024-02-28T07:17:20;4.90;99.90
73955;DHT22;62306;52.516;13.290;2024-02-28T07:19:47;5.00;99.90
73955;DHT22;62306;52.516;13.290;2024-02-28T07:22:14;4.90;99.90
73955;DHT22;62306;52.516;13.290;2024-02-28T07:24:41;4.90;99.90
73955;DHT22;62306;52.516;13.290;2024-02-28T07:27:08;4.80;99.90
73955;DHT22;62306;52.516;13.290;2024-02-28T07:29:36;4.70;99.90
73955;DHT22;62306;52.516;13.290;2024-02-28T07:32:05;4.70;99.90
73955;DHT22;62306;52.516;13.290;2024-02-28T07:34:32;4.80;99.90
73955;DHT22;62306;52.516;13.290;2024-02-28T07:36:59;4.80;99.90
73955;DHT22;62306;52.516;13.290;2024-02-28T07:39:26;4.80;99.90
73955;DHT22;62306;52.516;13.290;2024-02-28T07:41:53;4.80;99.90
73955;DHT22;62306;52.516;13.290;2024-02-28T07:44:19;4.80;99.90
73955;DHT22;62306;52.516;13.290;2024-02-28T07:46:46;4.90;99.90
73955;DHT22;62306;52.516;13.290;2024-02-28T07:49:14;4.90;99.90
73955;DHT22;62306;52.516;13.290;2024-02-28T07:51:41;5.00;99.90
73955;DHT22;62306;52.516;13.290;2024-02-28T07:54:08;5.00;99.90
73955;DHT22;62306;52.516;13.290;2024-02-28T07:56:35;5.00;99.90
73955;DHT22;62306;52.516;13.290;2024-02-28T07:59:02;5.00;99.90
73955;DHT22;62306;52.516;13.290;2024-02-28T08:01:29;5.00;99.90
73955;DHT22;62306;52.516;13.290;2024-02-28T08:03:56;5.00;99.90
73955;DHT22;62306;52.516;13.290;2024-02-28T08:06:24;5.00;99.90
73955;DHT22;62306;52.516;13.290;2024-02-28T08:08:51;5.10;99.90
73955;DHT22;62306;52.516;13.290;2024-02-28T08:11:18;5.10;99.90
73955;DHT22;62306;52.516;13.290;2024-02-28T08:13:45;5.10;99.90
73955;DHT22;62306;52.516;13.290;2024-02-28T08:16:12;5.10;99.90
73955;DHT22;62306;52.516;13.290;2024-02-28T08:18:39;5.10;99.90
73955;DHT22;62306;52.516;13.290;2024-02-28T08:21:06;5.10;99.90
73955;DHT22;62306;52.516;13.290;2024-02-28T08:23:34;5.10;99.90
73955;DHT22;62306;52.516;13.290;2024-02-28T08:26:01;5.10;99.90
73955;DHT22;62306;52.516;13.290;2024-02-28T08:28:28;5.10;99.90
73955;DHT22;62306;52.516;13.290;2024-02-28T08:30:55;5.00;99.90
73955;DHT22;62306;52.516;13.290;2024-02-28T08:33:22;4.90;99.90
73955;DHT22;62306;52.516;13.290;2024-02-28T08:35:49;4.90;99.90
73955;DHT22;62306;52.516;13.290;2024-02-28T08:38:17;4.80;99.90
73955;DHT22;62306;52.516;13.290;2024-02-28T08:40:45;4.80;99.90
73955;DHT22;62306;52.516;13.290;2024-02-28T08:43:12;4.80;99.90
73955;DHT22;62306;52.516;13.290;2024-02-28T08:45:39;4.80;99.90
73955;DHT22;62306;52.516;13.290;2024-02-28T08:48:06;4.80;99.90
73955;DHT22;62306;52.516;13.290;2024-02-28T08:50:33;4.80;99.90
73955;DHT22;62306;52.516;13.290;2024-02-28T08:53:01;4.90;99.90
73955;DHT22;62306;52.516;13.290;2024-02-28T08:55:28;4.90;99.90
73955;DHT22;62306;52.516;13.290;2024-02-28T08:57:56;4.90;99.90
73955;DHT22;62306;52.516;13.290;2024-02-28T09:00:23;5.00;99.90
73955;DHT22;62306;52.516;13.290;2024-02-28T09:02:50;5.00;99.90
73955;DHT22;62306;52.516;13.290;2024-02-28T09:05:17;5.00;99.90
73955;DHT22;62306;52.516;13.290;2024-02-28T09:07:44;4.90;99.90
73955;DHT22;62306;52.516;13.290;2024-02-28T09:10:11;4.90;99.90
73955;DHT22;62306;52.516;13.290;2024-02-28T09:12:37;4.90;99.90
73955;DHT22;62306;52.516;13.290;2024-02-28T09:15:06;4.90;99.90
73955;DHT22;62306;52.516;13.290;2024-02-28T09:17:33;4.90;99.90
73955;DHT22;62306;52.516;13.290;2024-02-28T09:20:00;4.90;99.90
73955;DHT22;62306;52.516;13.290;2024-02-28T09:22:29;5.00;99.90
73955;DHT22;62306;52.516;13.290;2024-02-28T09:24:56;5.00;99.90
73955;DHT22;62306;52.516;13.290;2024-02-28T09:27:23;5.00;99.90
73955;DHT22;62306;52.516;13.290;2024-02-28T09:29:51;5.10;99.90
73955;DHT22;62306;52.516;13.290;2024-02-28T09:32:20;5.10;99.90
73955;DHT22;62306;52.516;13.290;2024-02-28T09:34:47;5.10;99.90
73955;DHT22;62306;52.516;13.290;2024-02-28T09:37:13;5.10;99.90
73955;DHT22;62306;52.516;13.290;2024-02-28T09:39:42;5.20;99.90
73955;DHT22;62306;52.516;13.290;2024-02-28T09:42:10;5.20;99.90
73955;DHT22;62306;52.516;13.290;2024-02-28T09:44:39;5.20;99.90
73955;DHT22;62306;52.516;13.290;2024-02-28T09:47:06;5.70;99.90
73955;DHT22;62306;52.516;13.290;2024-02-28T09:49:36;5.20;99.90
73955;DHT22;62306;52.516;13.290;2024-02-28T09:52:04;4.40;99.90
73955;DHT22;62306;52.516;13.290;2024-02-28T09:54:31;5.10;99.90
73955;DHT22;62306;52.516;13.290;2024-02-28T09:56:57;5.10;99.90
73955;DHT22;62306;52.516;13.290;2024-02-28T09:59:25;5.10;99.90
73955;DHT22;62306;52.516;13.290;2024-02-28T10:01:56;7.50;99.90
73955;DHT22;62306;52.516;13.290;2024-02-28T10:04:24;5.10;99.90
73955;DHT22;62306;52.516;13.290;2024-02-28T10:06:54;5.10;99.90
73955;DHT22;62306;52.516;13.290;2024-02-28T10:09:21;5.10;99.90
73955;DHT22;62306;52.516;13.290;2024-02-28T10:11:48;5.10;99.90
73955;DHT22;62306;52.516;13.290;2024-02-28T10:14:17;5.10;99.90
73955;DHT22;62306;52.516;13.290;2024-02-28T10:16:45;5.10;99.90
73955;DHT22;62306;52.516;13.290;2024-02-28T10:19:12;5.20;99.90
73955;DHT22;62306;52.516;13.290;2024-02-28T10:21:39;5.20;99.90
73955;DHT22;62306;52.516;13.290;2024-02-28T10:24:07;5.20;99.90
73955;DHT22;62306;52.516;13.290;2024-02-28T10:26:42;5.30;99.90
73955;DHT22;62306;52.516;13.290;2024-02-28T10:29:09;5.30;99.90
73955;DHT22;62306;52.516;13.290;2024-02-28T10:31:36;5.40;99.90
73955;DHT22;62306;52.516;13.290;2024-02-28T10:34:04;5.40;99.90
73955;DHT22;62306;52.516;13.290;2024-02-28T10:36:32;5.40;99.90
73955;DHT22;62306;52.516;13.290;2024-02-28T10:39:00;5.40;99.90
73955;DHT22;62306;52.516;13.290;2024-02-28T10:41:29;5.40;99.90
73955;DHT22;62306;52.516;13.290;2024-02-28T10:43:58;5.50;99.90
73955;DHT22;62306;52.516;13.290;2024-02-28T10:46:26;5.50;99.90
73955;DHT22;62306;52.516;13.290;2024-02-28T10:48:53;5.50;99.90
73955;DHT22;62306;52.516;13.290;2024-02-28T10:51:23;5.60;99.90
73955;DHT22;62306;52.516;13.290;2024-02-28T10:54:00;5.60;99.90
73955;DHT22;62306;52.516;13.290;2024-02-28T10:56:30;5.60;99.90
73955;DHT22;62306;52.516;13.290;2024-02-28T10:58:59;5.60;99.90
73955;DHT22;62306;52.516;13.290;2024-02-28T11:01:26;5.60;99.90
73955;DHT22;62306;52.516;13.290;2024-02-28T11:03:53;5.60;99.90
73955;DHT22;62306;52.516;13.290;2024-02-28T11:06:21;5.60;99.90
73955;DHT22;62306;52.516;13.290;2024-02-28T11:08:49;5.70;99.90
73955;DHT22;62306;52.516;13.290;2024-02-28T11:11:19;5.70;99.90
73955;DHT22;62306;52.516;13.290;2024-02-28T11:13:55;5.70;99.90
73955;DHT22;62306;52.516;13.290;2024-02-28T11:16:29;5.70;99.90
73955;DHT22;62306;52.516;13.290;2024-02-28T11:18:56;5.70;99.90
73955;DHT22;62306;52.516;13.290;2024-02-28T11:21:24;5.80;99.90
73955;DHT22;62306;52.516;13.290;2024-02-28T11:23:52;5.80;99.90
73955;DHT22;62306;52.516;13.290;2024-02-28T11:26:19;5.90;99.90
73955;DHT22;62306;52.516;13.290;2024-02-28T11:28:47;5.80;99.90
73955;DHT22;62306;52.516;13.290;2024-02-28T11:31:16;5.70;99.90
73955;DHT22;62306;52.516;13.290;2024-02-28T11:33:44;5.70;99.90
73955;DHT22;62306;52.516;13.290;2024-02-28T11:36:11;5.80;99.90
73955;DHT22;62306;52.516;13.290;2024-02-28T11:38:39;5.90;99.90
73955;DHT22;62306;52.516;13.290;2024-02-28T11:41:07;6.00;99.90
73955;DHT22;62306;52.516;13.290;2024-02-28T11:43:34;6.10;99.90
73955;DHT22;62306;52.516;13.290;2024-02-28T11:46:01;6.30;99.90
73955;DHT22;62306;52.516;13.290;2024-02-28T11:48:31;6.30;99.90
73955;DHT22;62306;52.516;13.290;2024-02-28T11:50:58;6.20;99.90
73955;DHT22;62306;52.516;13.290;2024-02-28T11:53:25;6.20;99.90
73955;DHT22;62306;52.516;13.290;2024-02-28T11:55:53;6.20;99.90
73955;DHT22;62306;52.516;13.290;2024-02-28T11:58:21;6.20;99.90
73955;DHT22;62306;52.516;13.290;2024-02-28T12:00:48;6.10;99.90
73955;DHT22;62306;52.516;13.290;2024-02-28T12:03:20;6.10;99.90
73955;DHT22;62306;52.516;13.290;2024-02-28T12:05:49;6.10;99.90
73955;DHT22;62306;52.516;13.290;2024-02-28T12:08:17;6.00;99.90
73955;DHT22;62306;52.516;13.290;2024-02-28T12:10:45;6.00;99.90
73955;DHT22;62306;52.516;13.290;2024-02-28T12:13:16;5.90;99.90
73955;DHT22;62306;52.516;13.290;2024-02-28T12:15:43;5.80;99.90
73955;DHT22;62306;52.516;13.290;2024-02-28T12:18:11;5.90;99.90
73955;DHT22;62306;52.516;13.290;2024-02-28T12:20:38;5.90;99.90
73955;DHT22;62306;52.516;13.290;2024-02-28T12:23:06;6.00;99.90
73955;DHT22;62306;52.516;13.290;2024-02-28T12:25:33;6.10;99.90
73955;DHT22;62306;52.516;13.290;2024-02-28T12:28:01;6.20;99.90
73955;DHT22;62306;52.516;13.290;2024-02-28T12:30:31;6.30;99.90
73955;DHT22;62306;52.516;13.290;2024-02-28T12:32:57;6.50;99.90
73955;DHT22;62306;52.516;13.290;2024-02-28T12:35:25;6.50;99.90
73955;DHT22;62306;52.516;13.290;2024-02-28T12:37:52;6.60;99.90
73955;DHT22;62306;52.516;13.290;2024-02-28T12:40:20;6.70;99.90
73955;DHT22;62306;52.516;13.290;2024-02-28T12:42:47;6.80;99.90
73955;DHT22;62306;52.516;13.290;2024-02-28T12:45:14;6.90;99.90
73955;DHT22;62306;52.516;13.290;2024-02-28T12:47:41;6.80;99.90
73955;DHT22;62306;52.516;13.290;2024-02-28T12:50:08;6.70;99.90
73955;DHT22;62306;52.516;13.290;2024-02-28T12:52:37;6.60;99.90
73955;DHT22;62306;52.516;13.290;2024-02-28T12:55:04;6.70;99.90
73955;DHT22;62306;52.516;13.290;2024-02-28T12:57:32;6.80;99.90
73955;DHT22;62306;52.516;13.290;2024-02-28T12:59:59;6.80;99.90
73955;DHT22;62306;52.516;13.290;2024-02-28T13:02:26;6.80;99.90
73955;DHT22;62306;52.516;13.290;2024-02-28T13:04:53;6.90;99.90
73955;DHT22;62306;52.516;13.290;2024-02-28T13:07:20;6.90;99.90
73955;DHT22;62306;52.516;13.290;2024-02-28T13:09:48;7.00;99.90
73955;DHT22;62306;52.516;13.290;2024-02-28T13:12:16;7.10;99.90
73955;DHT22;62306;52.516;13.290;2024-02-28T13:14:44;7.20;99.90
73955;DHT22;62306;52.516;13.290;2024-02-28T13:17:11;7.30;99.90
73955;DHT22;62306;52.516;13.290;2024-02-28T13:19:38;7.30;99.90
73955;DHT22;62306;52.516;13.290;2024-02-28T13:22:05;7.30;99.90
73955;DHT22;62306;52.516;13.290;2024-02-28T13:24:32;7.30;99.90
73955;DHT22;62306;52.516;13.290;2024-02-28T13:27:01;7.30;99.90
73955;DHT22;62306;52.516;13.290;2024-02-28T13:29:27;7.40;99.90
73955;DHT22;62306;52.516;13.290;2024-02-28T13:31:56;7.50;99.90
73955;DHT22;62306;52.516;13.290;2024-02-28T13:34:23;7.50;99.90
73955;DHT22;62306;52.516;13.290;2024-02-28T13:36:49;7.60;99.90
73955;DHT22;62306;52.516;13.290;2024-02-28T13:39:17;7.70;99.90
73955;DHT22;62306;52.516;13.290;2024-02-28T13:41:44;7.70;99.90
73955;DHT22;62306;52.516;13.290;2024-02-28T13:44:11;7.70;99.90
73955;DHT22;62306;52.516;13.290;2024-02-28T13:46:37;7.40;99.90
73955;DHT22;62306;52.516;13.290;2024-02-28T13:49:08;7.20;99.90
73955;DHT22;62306;52.516;13.290;2024-02-28T13:51:35;7.00;99.90
73955;DHT22;62306;52.516;13.290;2024-02-28T13:54:01;6.90;99.90
73955;DHT22;62306;52.516;13.290;2024-02-28T13:56:28;6.80;99.90
73955;DHT22;62306;52.516;13.290;2024-02-28T13:58:56;6.70;99.90
73955;DHT22;62306;52.516;13.290;2024-02-28T14:01:23;6.70;99.90
73955;DHT22;62306;52.516;13.290;2024-02-28T14:03:50;6.70;99.90
73955;DHT22;62306;52.516;13.290;2024-02-28T14:06:18;6.60;99.90
73955;DHT22;62306;52.516;13.290;2024-02-28T14:08:45;6.70;99.90
73955;DHT22;62306;52.516;13.290;2024-02-28T14:11:12;6.70;99.90
73955;DHT22;62306;52.516;13.290;2024-02-28T14:13:41;6.60;99.90
73955;DHT22;62306;52.516;13.290;2024-02-28T14:16:09;6.70;99.90
73955;DHT22;62306;52.516;13.290;2024-02-28T14:18:35;6.90;99.90
73955;DHT22;62306;52.516;13.290;2024-02-28T14:21:03;7.00;99.90
73955;DHT22;62306;52.516;13.290;2024-02-28T14:23:32;7.00;99.90
73955;DHT22;62306;52.516;13.290;2024-02-28T14:25:58;7.00;99.90
73955;DHT22;62306;52.516;13.290;2024-02-28T14:28:25;7.00;99.90
73955;DHT22;62306;52.516;13.290;2024-02-28T14:30:52;7.10;99.90
73955;DHT22;62306;52.516;13.290;2024-02-28T14:33:19;6.90;99.90
73955;DHT22;62306;52.516;13.290;2024-02-28T14:35:47;6.90;99.90
73955;DHT22;62306;52.516;13.290;2024-02-28T14:38:14;6.90;99.90
73955;DHT22;62306;52.516;13.290;2024-02-28T14:40:42;6.90;99.90
73955;DHT22;62306;52.516;13.290;2024-02-28T14:43:09;6.80;99.90
73955;DHT22;62306;52.516;13.290;2024-02-28T14:45:36;6.90;99.90
73955;DHT22;62306;52.516;13.290;2024-02-28T14:48:03;6.90;99.90
73955;DHT22;62306;52.516;13.290;2024-02-28T14:50:31;6.90;99.90
73955;DHT22;62306;52.516;13.290;2024-02-28T14:52:58;6.90;99.90
73955;DHT22;62306;52.516;13.290;2024-02-28T14:55:25;6.90;99.90
73955;DHT22;62306;52.516;13.290;2024-02-28T14:57:53;6.80;99.90
73955;DHT22;62306;52.516;13.290;2024-02-28T15:00:20;6.70;99.90
73955;DHT22;62306;52.516;13.290;2024-02-28T15:02:47;6.50;99.90
73955;DHT22;62306;52.516;13.290;2024-02-28T15:05:14;6.50;99.90
73955;DHT22;62306;52.516;13.290;2024-02-28T15:07:41;6.90;99.90
73955;DHT22;62306;52.516;13.290;2024-02-28T15:10:08;6.50;99.90
73955;DHT22;62306;52.516;13.290;2024-02-28T15:12:35;6.40;99.90
73955;DHT22;62306;52.516;13.290;2024-02-28T15:15:05;6.40;99.90
73955;DHT22;62306;52.516;13.290;2024-02-28T15:17:32;6.30;99.90
73955;DHT22;62306;52.516;13.290;2024-02-28T15:19:59;6.20;99.90
73955;DHT22;62306;52.516;13.290;2024-02-28T15:22:28;6.10;99.90
73955;DHT22;62306;52.516;13.290;2024-02-28T15:24:55;6.00;99.90
73955;DHT22;62306;52.516;13.290;2024-02-28T15:27:21;6.00;99.90
73955;DHT22;62306;52.516;13.290;2024-02-28T15:29:48;6.20;99.90
73955;DHT22;62306;52.516;13.290;2024-02-28T15:32:16;6.20;99.90
73955;DHT22;62306;52.516;13.290;2024-02-28T15:34:43;6.20;99.90
73955;DHT22;62306;52.516;13.290;2024-02-28T15:37:10;6.20;99.90
73955;DHT22;62306;52.516;13.290;2024-02-28T15:39:37;6.20;99.90
73955;DHT22;62306;52.516;13.290;2024-02-28T15:42:06;6.10;99.90
73955;DHT22;62306;52.516;13.290;2024-02-28T15:44:33;6.10;99.90
73955;DHT22;62306;52.516;13.290;2024-02-28T15:47:00;6.10;99.90
73955;DHT22;62306;52.516;13.290;2024-02-28T15:49:28;6.00;99.90
73955;DHT22;62306;52.516;13.290;2024-02-28T15:51:55;5.90;99.90
73955;DHT22;62306;52.516;13.290;2024-02-28T15:54:22;6.00;99.90
73955;DHT22;62306;52.516;13.290;2024-02-28T15:56:49;6.00;99.90
73955;DHT22;62306;52.516;13.290;2024-02-28T15:59:16;5.90;99.90
73955;DHT22;62306;52.516;13.290;2024-02-28T16:01:42;5.90;99.90
73955;DHT22;62306;52.516;13.290;2024-02-28T16:04:10;5.80;99.90
73955;DHT22;62306;52.516;13.290;2024-02-28T16:06:39;5.80;99.90
73955;DHT22;62306;52.516;13.290;2024-02-28T16:09:06;5.70;99.90
73955;DHT22;62306;52.516;13.290;2024-02-28T16:11:35;5.70;99.90
73955;DHT22;62306;52.516;13.290;2024-02-28T16:14:02;5.70;99.90
73955;DHT22;62306;52.516;13.290;2024-02-28T16:16:28;5.60;99.90
73955;DHT22;62306;52.516;13.290;2024-02-28T16:18:55;5.50;99.90
73955;DHT22;62306;52.516;13.290;2024-02-28T16:21:22;5.40;99.90
73955;DHT22;62306;52.516;13.290;2024-02-28T16:23:51;5.30;99.90
73955;DHT22;62306;52.516;13.290;2024-02-28T16:26:17;5.30;99.90
73955;DHT22;62306;52.516;13.290;2024-02-28T16:28:44;5.20;99.90
73955;DHT22;62306;52.516;13.290;2024-02-28T16:31:11;5.20;99.90
73955;DHT22;62306;52.516;13.290;2024-02-28T16:33:38;5.20;99.90
73955;DHT22;62306;52.516;13.290;2024-02-28T16:36:05;5.10;99.90
73955;DHT22;62306;52.516;13.290;2024-02-28T16:38:32;5.00;99.90
73955;DHT22;62306;52.516;13.290;2024-02-28T16:41:00;4.90;99.90
73955;DHT22;62306;52.516;13.290;2024-02-28T16:43:28;4.80;99.90
73955;DHT22;62306;52.516;13.290;2024-02-28T16:45:55;4.70;99.90
73955;DHT22;62306;52.516;13.290;2024-02-28T16:48:22;4.70;99.90
73955;DHT22;62306;52.516;13.290;2024-02-28T16:50:49;4.70;99.90
73955;DHT22;62306;52.516;13.290;2024-02-28T16:53:16;4.70;99.90
73955;DHT22;62306;52.516;13.290;2024-02-28T16:55:42;4.60;99.90
73955;DHT22;62306;52.516;13.290;2024-02-28T16:58:11;4.60;99.90
73955;DHT22;62306;52.516;13.290;2024-02-28T17:00:37;4.60;99.90
73955;DHT22;62306;52.516;13.290;2024-02-28T17:03:05;4.50;99.90
73955;DHT22;62306;52.516;13.290;2024-02-28T17:05:32;4.50;99.90
73955;DHT22;62306;52.516;13.290;2024-02-28T17:08:04;4.50;99.90
73955;DHT22;62306;52.516;13.290;2024-02-28T17:10:31;4.50;99.90
73955;DHT22;62306;52.516;13.290;2024-02-28T17:12:58;4.50;99.90
73955;DHT22;62306;52.516;13.290;2024-02-28T17:15:26;4.50;99.90
73955;DHT22;62306;52.516;13.290;2024-02-28T17:17:53;4.50;99.90
73955;DHT22;62306;52.516;13.290;2024-02-28T17:20:20;4.50;99.90
73955;DHT22;62306;52.516;13.290;2024-02-28T17:22:47;4.40;99.90
73955;DHT22;62306;52.516;13.290;2024-02-28T17:25:15;4.40;99.90
73955;DHT22;62306;52.516;13.290;2024-02-28T17:27:42;4.40;99.90
73955;DHT22;62306;52.516;13.290;2024-02-28T17:30:10;4.40;99.90
73955;DHT22;62306;52.516;13.290;2024-02-28T17:32:38;4.60;99.90
73955;DHT22;62306;52.516;13.290;2024-02-28T17:35:05;4.50;99.90
73955;DHT22;62306;52.516;13.290;2024-02-28T17:37:33;4.60;99.90
73955;DHT22;62306;52.516;13.290;2024-02-28T17:40:01;4.50;99.90
73955;DHT22;62306;52.516;13.290;2024-02-28T17:42:28;4.40;99.90
73955;DHT22;62306;52.516;13.290;2024-02-28T17:44:55;4.40;99.90
73955;DHT22;62306;52.516;13.290;2024-02-28T17:47:22;4.40;99.90
73955;DHT22;62306;52.516;13.290;2024-02-28T17:49:53;4.40;99.90
73955;DHT22;62306;52.516;13.290;2024-02-28T17:52:20;4.40;99.90
73955;DHT22;62306;52.516;13.290;2024-02-28T17:54:47;4.40;99.90
73955;DHT22;62306;52.516;13.290;2024-02-28T17:57:15;4.40;99.90
73955;DHT22;62306;52.516;13.290;2024-02-28T17:59:42;4.40;99.90
73955;DHT22;62306;52.516;13.290;2024-02-28T18:02:09;4.30;99.90
73955;DHT22;62306;52.516;13.290;2024-02-28T18:04:36;4.30;99.90
73955;DHT22;62306;52.516;13.290;2024-02-28T18:07:04;5.20;99.90
73955;DHT22;62306;52.516;13.290;2024-02-28T18:09:31;4.40;99.90
73955;DHT22;62306;52.516;13.290;2024-02-28T18:11:58;4.30;99.90
73955;DHT22;62306;52.516;13.290;2024-02-28T18:14:25;4.30;99.90
73955;DHT22;62306;52.516;13.290;2024-02-28T18:16:52;4.30;99.90
73955;DHT22;62306;52.516;13.290;2024-02-28T18:19:19;4.30;99.90
73955;DHT22;62306;52.516;13.290;2024-02-28T18:21:47;4.30;99.90
73955;DHT22;62306;52.516;13.290;2024-02-28T18:24:16;4.20;99.90
73955;DHT22;62306;52.516;13.290;2024-02-28T18:26:43;4.20;99.90
73955;DHT22;62306;52.516;13.290;2024-02-28T18:29:10;4.20;99.90
73955;DHT22;62306;52.516;13.290;2024-02-28T18:31:37;4.20;99.90
73955;DHT22;62306;52.516;13.290;2024-02-28T18:34:03;4.20;99.90
73955;DHT22;62306;52.516;13.290;2024-02-28T18:36:30;4.20;99.90
73955;DHT22;62306;52.516;13.290;2024-02-28T18:38:57;4.20;99.90
73955;DHT22;62306;52.516;13.290;2024-02-28T18:41:26;4.70;99.90
73955;DHT22;62306;52.516;13.290;2024-02-28T18:43:53;4.20;99.90
73955;DHT22;62306;52.516;13.290;2024-02-28T18:46:20;4.20;99.90
73955;DHT22;62306;52.516;13.290;2024-02-28T18:48:46;4.20;99.90
73955;DHT22;62306;52.516;13.290;2024-02-28T18:51:16;4.10;99.90
73955;DHT22;62306;52.516;13.290;2024-02-28T18:53:43;4.10;99.90
73955;DHT22;62306;52.516;13.290;2024-02-28T18:56:10;4.10;99.90